sensor_id;sensor_type;location;lat;lon;timestamp;P1;durP1;ratioP1;P2;durP2;ratioP2
52868;SDS011;39100;53.480;6.158;2022-08-14T00:01:58;3.90;;;3.13;;
52868;SDS011;39100;53.480;6.158;2022-08-14T00:04:24;3.38;;;2.88;;
52868;SDS011;39100;53.480;6.158;2022-08-14T00:06:51;3.75;;;3.05;;
52868;SDS011;39100;53.480;6.158;2022-08-14T00:09:17;3.83;;;3.17;;
52868;SDS011;39100;53.480;6.158;2022-08-14T00:11:42;3.08;;;2.78;;
52868;SDS011;39100;53.480;6.158;2022-08-14T00:14:08;4.18;;;2.72;;
52868;SDS011;39100;53.480;6.158;2022-08-14T00:16:34;3.38;;;3.08;;
52868;SDS011;39100;53.480;6.158;2022-08-14T00:18:59;4.38;;;3.20;;
52868;SDS011;39100;53.480;6.158;2022-08-14T00:21:25;4.47;;;3.58;;
52868;SDS011;39100;53.480;6.158;2022-08-14T00:23:51;4.25;;;2.85;;
52868;SDS011;39100;53.480;6.158;2022-08-14T00:26:18;3.53;;;3.22;;
52868;SDS011;39100;53.480;6.158;2022-08-14T00:28:43;2.75;;;2.42;;
52868;SDS011;39100;53.480;6.158;2022-08-14T00:31:09;3.97;;;3.33;;
52868;SDS011;39100;53.480;6.158;2022-08-14T00:33:34;2.90;;;2.35;;
52868;SDS011;39100;53.480;6.158;2022-08-14T00:36:00;2.60;;;2.40;;
52868;SDS011;39100;53.480;6.158;2022-08-14T00:38:26;4.50;;;2.90;;
52868;SDS011;39100;53.480;6.158;2022-08-14T00:40:51;4.20;;;2.72;;
52868;SDS011;39100;53.480;6.158;2022-08-14T00:43:17;3.13;;;2.70;;
52868;SDS011;39100;53.480;6.158;2022-08-14T00:45:43;2.92;;;2.63;;
52868;SDS011;39100;53.480;6.158;2022-08-14T00:48:08;2.53;;;2.33;;
52868;SDS011;39100;53.480;6.158;2022-08-14T00:50:34;3.22;;;2.92;;
52868;SDS011;39100;53.480;6.158;2022-08-14T00:53:00;3.22;;;2.70;;
52868;SDS011;39100;53.480;6.158;2022-08-14T00:55:28;5.00;;;3.00;;
52868;SDS011;39100;53.480;6.158;2022-08-14T00:57:55;3.05;;;2.70;;
52868;SDS011;39100;53.480;6.158;2022-08-14T01:00:41;4.50;;;2.75;;
52868;SDS011;39100;53.480;6.158;2022-08-14T01:03:08;2.83;;;2.55;;
52868;SDS011;39100;53.480;6.158;2022-08-14T01:05:33;2.65;;;2.33;;
52868;SDS011;39100;53.480;6.158;2022-08-14T01:07:59;2.95;;;2.58;;
52868;SDS011;39100;53.480;6.158;2022-08-14T01:10:26;3.03;;;2.55;;
52868;SDS011;39100;53.480;6.158;2022-08-14T01:13:13;2.92;;;2.45;;
52868;SDS011;39100;53.480;6.158;2022-08-14T01:15:44;2.55;;;2.35;;
52868;SDS011;39100;53.480;6.158;2022-08-14T01:18:13;3.15;;;2.78;;
52868;SDS011;39100;53.480;6.158;2022-08-14T01:20:58;2.95;;;2.58;;
52868;SDS011;39100;53.480;6.158;2022-08-14T01:23:36;5.05;;;2.90;;
52868;SDS011;39100;53.480;6.158;2022-08-14T01:26:07;3.35;;;2.97;;
52868;SDS011;39100;53.480;6.158;2022-08-14T01:28:34;3.25;;;2.63;;
52868;SDS011;39100;53.480;6.158;2022-08-14T01:31:02;3.38;;;2.88;;
52868;SDS011;39100;53.480;6.158;2022-08-14T01:33:30;3.92;;;3.20;;
52868;SDS011;39100;53.480;6.158;2022-08-14T01:35:57;3.78;;;3.00;;
52868;SDS011;39100;53.480;6.158;2022-08-14T01:38:25;2.97;;;2.67;;
52868;SDS011;39100;53.480;6.158;2022-08-14T01:40:55;3.40;;;3.10;;
52868;SDS011;39100;53.480;6.158;2022-08-14T01:43:21;3.15;;;2.95;;
52868;SDS011;39100;53.480;6.158;2022-08-14T01:45:47;2.70;;;2.30;;
52868;SDS011;39100;53.480;6.158;2022-08-14T01:48:15;3.75;;;3.30;;
52868;SDS011;39100;53.480;6.158;2022-08-14T01:50:41;3.45;;;2.90;;
52868;SDS011;39100;53.480;6.158;2022-08-14T01:53:07;3.40;;;2.78;;
52868;SDS011;39100;53.480;6.158;2022-08-14T01:55:34;3.05;;;2.75;;
52868;SDS011;39100;53.480;6.158;2022-08-14T01:58:01;5.88;;;2.95;;
52868;SDS011;39100;53.480;6.158;2022-08-14T02:00:27;3.47;;;3.00;;
52868;SDS011;39100;53.480;6.158;2022-08-14T02:02:54;2.50;;;2.30;;
52868;SDS011;39100;53.480;6.158;2022-08-14T02:05:23;2.53;;;2.30;;
52868;SDS011;39100;53.480;6.158;2022-08-14T02:07:53;2.92;;;2.72;;
52868;SDS011;39100;53.480;6.158;2022-08-14T02:10:20;3.72;;;2.92;;
52868;SDS011;39100;53.480;6.158;2022-08-14T02:12:46;5.70;;;3.10;;
52868;SDS011;39100;53.480;6.158;2022-08-14T02:15:12;3.65;;;2.60;;
52868;SDS011;39100;53.480;6.158;2022-08-14T02:17:39;3.03;;;2.75;;
52868;SDS011;39100;53.480;6.158;2022-08-14T02:20:05;2.83;;;2.55;;
52868;SDS011;39100;53.480;6.158;2022-08-14T02:22:32;3.45;;;2.80;;
52868;SDS011;39100;53.480;6.158;2022-08-14T02:24:59;2.90;;;2.67;;
52868;SDS011;39100;53.480;6.158;2022-08-14T02:27:25;3.05;;;2.72;;
52868;SDS011;39100;53.480;6.158;2022-08-14T02:29:53;3.33;;;2.95;;
52868;SDS011;39100;53.480;6.158;2022-08-14T02:32:20;3.53;;;2.90;;
52868;SDS011;39100;53.480;6.158;2022-08-14T02:34:45;3.50;;;3.17;;
52868;SDS011;39100;53.480;6.158;2022-08-14T02:37:12;3.40;;;2.83;;
52868;SDS011;39100;53.480;6.158;2022-08-14T02:39:39;2.85;;;2.58;;
52868;SDS011;39100;53.480;6.158;2022-08-14T02:42:08;2.90;;;2.28;;
52868;SDS011;39100;53.480;6.158;2022-08-14T02:44:40;2.85;;;2.65;;
52868;SDS011;39100;53.480;6.158;2022-08-14T02:47:07;2.50;;;2.30;;
52868;SDS011;39100;53.480;6.158;2022-08-14T02:49:34;4.65;;;3.30;;
52868;SDS011;39100;53.480;6.158;2022-08-14T02:52:00;3.47;;;3.17;;
52868;SDS011;39100;53.480;6.158;2022-08-14T02:54:27;4.38;;;2.35;;
52868;SDS011;39100;53.480;6.158;2022-08-14T02:56:56;3.15;;;2.85;;
52868;SDS011;39100;53.480;6.158;2022-08-14T02:59:24;3.28;;;2.97;;
52868;SDS011;39100;53.480;6.158;2022-08-14T03:01:53;3.60;;;3.13;;
52868;SDS011;39100;53.480;6.158;2022-08-14T03:04:20;4.45;;;2.58;;
52868;SDS011;39100;53.480;6.158;2022-08-14T03:06:46;2.53;;;2.33;;
52868;SDS011;39100;53.480;6.158;2022-08-14T03:09:13;3.05;;;2.85;;
52868;SDS011;39100;53.480;6.158;2022-08-14T03:11:39;2.00;;;1.90;;
52868;SDS011;39100;53.480;6.158;2022-08-14T03:14:08;3.28;;;2.90;;
52868;SDS011;39100;53.480;6.158;2022-08-14T03:16:36;2.83;;;2.63;;
52868;SDS011;39100;53.480;6.158;2022-08-14T03:19:03;5.13;;;3.30;;
52868;SDS011;39100;53.480;6.158;2022-08-14T03:21:31;3.17;;;2.88;;
52868;SDS011;39100;53.480;6.158;2022-08-14T03:23:57;2.63;;;2.42;;
52868;SDS011;39100;53.480;6.158;2022-08-14T03:26:26;3.45;;;2.88;;
52868;SDS011;39100;53.480;6.158;2022-08-14T03:28:52;3.97;;;2.80;;
52868;SDS011;39100;53.480;6.158;2022-08-14T03:31:18;3.55;;;3.25;;
52868;SDS011;39100;53.480;6.158;2022-08-14T03:33:46;3.85;;;3.55;;
52868;SDS011;39100;53.480;6.158;2022-08-14T03:36:14;4.00;;;3.25;;
52868;SDS011;39100;53.480;6.158;2022-08-14T03:38:41;3.55;;;3.25;;
52868;SDS011;39100;53.480;6.158;2022-08-14T03:41:11;4.28;;;2.92;;
52868;SDS011;39100;53.480;6.158;2022-08-14T03:43:43;3.85;;;2.85;;
52868;SDS011;39100;53.480;6.158;2022-08-14T03:46:10;3.33;;;2.92;;
52868;SDS011;39100;53.480;6.158;2022-08-14T03:48:37;3.30;;;3.00;;
52868;SDS011;39100;53.480;6.158;2022-08-14T03:51:04;2.83;;;2.60;;
52868;SDS011;39100;53.480;6.158;2022-08-14T03:53:33;3.03;;;2.75;;
52868;SDS011;39100;53.480;6.158;2022-08-14T03:56:02;4.43;;;2.97;;
52868;SDS011;39100;53.480;6.158;2022-08-14T03:58:29;3.40;;;3.10;;
52868;SDS011;39100;53.480;6.158;2022-08-14T04:00:56;3.40;;;2.85;;
52868;SDS011;39100;53.480;6.158;2022-08-14T04:03:23;3.38;;;3.08;;
52868;SDS011;39100;53.480;6.158;2022-08-14T04:05:50;3.33;;;3.03;;
52868;SDS011;39100;53.480;6.158;2022-08-14T04:08:16;3.15;;;2.92;;
52868;SDS011;39100;53.480;6.158;2022-08-14T04:10:42;3.03;;;2.72;;
52868;SDS011;39100;53.480;6.158;2022-08-14T04:13:10;2.85;;;2.63;;
52868;SDS011;39100;53.480;6.158;2022-08-14T04:15:36;2.88;;;2.42;;
52868;SDS011;39100;53.480;6.158;2022-08-14T04:18:03;4.05;;;3.13;;
52868;SDS011;39100;53.480;6.158;2022-08-14T04:20:33;3.20;;;2.90;;
52868;SDS011;39100;53.480;6.158;2022-08-14T04:22:59;5.20;;;3.28;;
52868;SDS011;39100;53.480;6.158;2022-08-14T04:25:25;2.80;;;2.60;;
52868;SDS011;39100;53.480;6.158;2022-08-14T04:27:51;3.55;;;3.25;;
52868;SDS011;39100;53.480;6.158;2022-08-14T04:30:18;3.00;;;2.70;;
52868;SDS011;39100;53.480;6.158;2022-08-14T04:32:44;3.20;;;2.95;;
52868;SDS011;39100;53.480;6.158;2022-08-14T04:35:10;2.88;;;2.38;;
52868;SDS011;39100;53.480;6.158;2022-08-14T04:37:36;2.85;;;2.60;;
52868;SDS011;39100;53.480;6.158;2022-08-14T04:40:20;2.45;;;2.25;;
52868;SDS011;39100;53.480;6.158;2022-08-14T04:43:04;2.63;;;2.42;;
52868;SDS011;39100;53.480;6.158;2022-08-14T04:45:48;3.15;;;2.83;;
52868;SDS011;39100;53.480;6.158;2022-08-14T04:48:14;3.10;;;2.80;;
52868;SDS011;39100;53.480;6.158;2022-08-14T04:53:08;2.65;;;2.45;;
52868;SDS011;39100;53.480;6.158;2022-08-14T04:55:36;2.42;;;2.22;;
52868;SDS011;39100;53.480;6.158;2022-08-14T04:58:03;3.60;;;3.20;;
52868;SDS011;39100;53.480;6.158;2022-08-14T05:00:30;4.55;;;3.05;;
52868;SDS011;39100;53.480;6.158;2022-08-14T05:02:56;3.30;;;2.92;;
52868;SDS011;39100;53.480;6.158;2022-08-14T05:05:23;3.58;;;2.70;;
52868;SDS011;39100;53.480;6.158;2022-08-14T05:07:52;3.33;;;2.70;;
52868;SDS011;39100;53.480;6.158;2022-08-14T05:10:17;3.10;;;2.78;;
52868;SDS011;39100;53.480;6.158;2022-08-14T05:12:48;3.70;;;3.25;;
52868;SDS011;39100;53.480;6.158;2022-08-14T05:15:13;3.40;;;3.10;;
52868;SDS011;39100;53.480;6.158;2022-08-14T05:17:42;3.35;;;2.40;;
52868;SDS011;39100;53.480;6.158;2022-08-14T05:20:08;3.83;;;3.38;;
52868;SDS011;39100;53.480;6.158;2022-08-14T05:22:34;5.82;;;3.08;;
52868;SDS011;39100;53.480;6.158;2022-08-14T05:25:00;3.28;;;2.92;;
52868;SDS011;39100;53.480;6.158;2022-08-14T05:27:27;3.10;;;2.90;;
52868;SDS011;39100;53.480;6.158;2022-08-14T05:29:53;4.53;;;3.47;;
52868;SDS011;39100;53.480;6.158;2022-08-14T05:32:19;2.90;;;2.70;;
52868;SDS011;39100;53.480;6.158;2022-08-14T05:34:45;6.10;;;2.75;;
52868;SDS011;39100;53.480;6.158;2022-08-14T05:37:11;2.70;;;2.50;;
52868;SDS011;39100;53.480;6.158;2022-08-14T05:39:38;4.40;;;3.20;;
52868;SDS011;39100;53.480;6.158;2022-08-14T05:42:05;3.15;;;2.85;;
52868;SDS011;39100;53.480;6.158;2022-08-14T05:44:31;3.15;;;2.63;;
52868;SDS011;39100;53.480;6.158;2022-08-14T05:46:57;2.90;;;2.58;;
52868;SDS011;39100;53.480;6.158;2022-08-14T05:49:23;3.20;;;2.88;;
52868;SDS011;39100;53.480;6.158;2022-08-14T05:51:49;3.03;;;2.72;;
52868;SDS011;39100;53.480;6.158;2022-08-14T05:54:14;3.78;;;3.08;;
52868;SDS011;39100;53.480;6.158;2022-08-14T05:56:40;3.42;;;3.13;;
52868;SDS011;39100;53.480;6.158;2022-08-14T05:59:05;3.72;;;3.15;;
52868;SDS011;39100;53.480;6.158;2022-08-14T06:01:31;3.30;;;2.97;;
52868;SDS011;39100;53.480;6.158;2022-08-14T06:03:57;3.40;;;3.10;;
52868;SDS011;39100;53.480;6.158;2022-08-14T06:06:22;4.32;;;3.92;;
52868;SDS011;39100;53.480;6.158;2022-08-14T06:08:48;3.97;;;3.45;;
52868;SDS011;39100;53.480;6.158;2022-08-14T06:11:13;4.40;;;3.63;;
52868;SDS011;39100;53.480;6.158;2022-08-14T06:13:39;3.70;;;3.40;;
52868;SDS011;39100;53.480;6.158;2022-08-14T06:16:07;4.15;;;3.30;;
52868;SDS011;39100;53.480;6.158;2022-08-14T06:18:33;3.97;;;3.58;;
52868;SDS011;39100;53.480;6.158;2022-08-14T06:21:00;3.90;;;3.60;;
52868;SDS011;39100;53.480;6.158;2022-08-14T06:23:27;4.30;;;3.70;;
52868;SDS011;39100;53.480;6.158;2022-08-14T06:25:53;4.65;;;3.53;;
52868;SDS011;39100;53.480;6.158;2022-08-14T06:28:20;5.38;;;4.28;;
52868;SDS011;39100;53.480;6.158;2022-08-14T06:30:50;4.25;;;3.20;;
52868;SDS011;39100;53.480;6.158;2022-08-14T06:33:16;3.38;;;3.08;;
52868;SDS011;39100;53.480;6.158;2022-08-14T06:35:43;3.00;;;2.80;;
52868;SDS011;39100;53.480;6.158;2022-08-14T06:38:12;5.15;;;3.50;;
52868;SDS011;39100;53.480;6.158;2022-08-14T06:40:40;3.72;;;3.30;;
52868;SDS011;39100;53.480;6.158;2022-08-14T06:43:06;3.85;;;3.50;;
52868;SDS011;39100;53.480;6.158;2022-08-14T06:45:33;3.40;;;3.10;;
52868;SDS011;39100;53.480;6.158;2022-08-14T06:48:00;3.65;;;3.10;;
52868;SDS011;39100;53.480;6.158;2022-08-14T06:50:26;5.03;;;2.72;;
52868;SDS011;39100;53.480;6.158;2022-08-14T06:52:53;2.92;;;2.72;;
52868;SDS011;39100;53.480;6.158;2022-08-14T06:55:19;3.10;;;2.78;;
52868;SDS011;39100;53.480;6.158;2022-08-14T06:57:46;2.97;;;2.72;;
52868;SDS011;39100;53.480;6.158;2022-08-14T07:00:16;2.80;;;2.60;;
52868;SDS011;39100;53.480;6.158;2022-08-14T07:02:43;3.25;;;2.55;;
52868;SDS011;39100;53.480;6.158;2022-08-14T07:05:29;4.40;;;2.75;;
52868;SDS011;39100;53.480;6.158;2022-08-14T07:08:14;3.08;;;2.78;;
52868;SDS011;39100;53.480;6.158;2022-08-14T07:10:52;3.33;;;3.03;;
52868;SDS011;39100;53.480;6.158;2022-08-14T07:13:19;3.30;;;2.92;;
52868;SDS011;39100;53.480;6.158;2022-08-14T07:15:46;2.83;;;2.63;;
52868;SDS011;39100;53.480;6.158;2022-08-14T07:18:14;3.10;;;2.90;;
52868;SDS011;39100;53.480;6.158;2022-08-14T07:20:46;3.10;;;2.80;;
52868;SDS011;39100;53.480;6.158;2022-08-14T07:23:11;4.63;;;2.92;;
52868;SDS011;39100;53.480;6.158;2022-08-14T07:25:38;4.15;;;3.40;;
52868;SDS011;39100;53.480;6.158;2022-08-14T07:28:13;4.05;;;3.40;;
52868;SDS011;39100;53.480;6.158;2022-08-14T07:30:40;4.10;;;3.47;;
52868;SDS011;39100;53.480;6.158;2022-08-14T07:33:06;3.67;;;3.28;;
52868;SDS011;39100;53.480;6.158;2022-08-14T07:35:32;4.50;;;3.42;;
52868;SDS011;39100;53.480;6.158;2022-08-14T07:38:00;4.57;;;4.18;;
52868;SDS011;39100;53.480;6.158;2022-08-14T07:40:26;4.53;;;4.10;;
52868;SDS011;39100;53.480;6.158;2022-08-14T07:42:52;4.22;;;3.80;;
52868;SDS011;39100;53.480;6.158;2022-08-14T07:45:17;6.18;;;3.90;;
52868;SDS011;39100;53.480;6.158;2022-08-14T07:47:43;4.72;;;4.22;;
52868;SDS011;39100;53.480;6.158;2022-08-14T07:50:16;4.93;;;4.03;;
52868;SDS011;39100;53.480;6.158;2022-08-14T07:52:43;4.07;;;3.78;;
52868;SDS011;39100;53.480;6.158;2022-08-14T07:55:10;4.10;;;3.80;;
52868;SDS011;39100;53.480;6.158;2022-08-14T07:57:41;3.50;;;3.20;;
52868;SDS011;39100;53.480;6.158;2022-08-14T08:00:09;3.83;;;3.43;;
52868;SDS011;39100;53.480;6.158;2022-08-14T08:02:38;3.75;;;3.40;;
52868;SDS011;39100;53.480;6.158;2022-08-14T08:05:06;5.18;;;3.92;;
52868;SDS011;39100;53.480;6.158;2022-08-14T08:07:32;4.03;;;3.10;;
52868;SDS011;39100;53.480;6.158;2022-08-14T08:10:00;3.67;;;3.38;;
52868;SDS011;39100;53.480;6.158;2022-08-14T08:12:49;5.22;;;4.20;;
52868;SDS011;39100;53.480;6.158;2022-08-14T08:15:16;3.47;;;3.17;;
52868;SDS011;39100;53.480;6.158;2022-08-14T08:17:43;4.18;;;3.78;;
52868;SDS011;39100;53.480;6.158;2022-08-14T08:20:13;3.60;;;3.30;;
52868;SDS011;39100;53.480;6.158;2022-08-14T08:25:07;3.55;;;3.25;;
52868;SDS011;39100;53.480;6.158;2022-08-14T08:27:33;3.22;;;2.92;;
52868;SDS011;39100;53.480;6.158;2022-08-14T08:30:06;3.63;;;2.67;;
52868;SDS011;39100;53.480;6.158;2022-08-14T08:32:40;4.80;;;4.30;;
52868;SDS011;39100;53.480;6.158;2022-08-14T08:35:15;3.70;;;3.40;;
52868;SDS011;39100;53.480;6.158;2022-08-14T08:37:42;3.55;;;2.90;;
52868;SDS011;39100;53.480;6.158;2022-08-14T08:40:08;4.05;;;3.67;;
52868;SDS011;39100;53.480;6.158;2022-08-14T08:42:34;3.67;;;3.38;;
52868;SDS011;39100;53.480;6.158;2022-08-14T08:44:59;4.80;;;3.42;;
52868;SDS011;39100;53.480;6.158;2022-08-14T08:47:25;4.22;;;3.92;;
52868;SDS011;39100;53.480;6.158;2022-08-14T08:50:02;3.90;;;3.53;;
52868;SDS011;39100;53.480;6.158;2022-08-14T08:52:28;3.55;;;3.25;;
52868;SDS011;39100;53.480;6.158;2022-08-14T08:54:53;3.50;;;3.20;;
52868;SDS011;39100;53.480;6.158;2022-08-14T08:57:19;5.05;;;3.50;;
52868;SDS011;39100;53.480;6.158;2022-08-14T08:59:45;3.47;;;3.17;;
52868;SDS011;39100;53.480;6.158;2022-08-14T09:02:10;3.40;;;3.10;;
52868;SDS011;39100;53.480;6.158;2022-08-14T09:04:40;3.50;;;3.20;;
52868;SDS011;39100;53.480;6.158;2022-08-14T09:07:08;4.05;;;3.30;;
52868;SDS011;39100;53.480;6.158;2022-08-14T09:09:34;3.55;;;3.25;;
52868;SDS011;39100;53.480;6.158;2022-08-14T09:12:15;5.68;;;3.45;;
52868;SDS011;39100;53.480;6.158;2022-08-14T09:14:41;3.63;;;3.33;;
52868;SDS011;39100;53.480;6.158;2022-08-14T09:17:07;3.72;;;3.35;;
52868;SDS011;39100;53.480;6.158;2022-08-14T09:19:35;3.28;;;3.05;;
52868;SDS011;39100;53.480;6.158;2022-08-14T09:22:01;3.80;;;3.40;;
52868;SDS011;39100;53.480;6.158;2022-08-14T09:24:28;3.45;;;3.15;;
52868;SDS011;39100;53.480;6.158;2022-08-14T09:26:54;3.78;;;3.47;;
52868;SDS011;39100;53.480;6.158;2022-08-14T09:29:19;4.55;;;3.13;;
52868;SDS011;39100;53.480;6.158;2022-08-14T09:31:48;3.05;;;2.83;;
52868;SDS011;39100;53.480;6.158;2022-08-14T09:37:00;4.55;;;3.22;;
52868;SDS011;39100;53.480;6.158;2022-08-14T09:42:45;3.15;;;2.85;;
52868;SDS011;39100;53.480;6.158;2022-08-14T09:45:27;3.78;;;3.15;;
52868;SDS011;39100;53.480;6.158;2022-08-14T09:47:58;3.60;;;3.30;;
52868;SDS011;39100;53.480;6.158;2022-08-14T09:53:03;4.35;;;3.13;;
52868;SDS011;39100;53.480;6.158;2022-08-14T09:55:33;3.50;;;3.13;;
52868;SDS011;39100;53.480;6.158;2022-08-14T09:58:13;3.20;;;2.95;;
52868;SDS011;39100;53.480;6.158;2022-08-14T10:00:51;3.28;;;2.97;;
52868;SDS011;39100;53.480;6.158;2022-08-14T10:03:27;4.13;;;3.08;;
52868;SDS011;39100;53.480;6.158;2022-08-14T10:06:03;3.08;;;2.88;;
52868;SDS011;39100;53.480;6.158;2022-08-14T10:08:43;4.43;;;2.97;;
52868;SDS011;39100;53.480;6.158;2022-08-14T10:11:21;3.30;;;3.03;;
52868;SDS011;39100;53.480;6.158;2022-08-14T10:13:52;3.78;;;2.90;;
52868;SDS011;39100;53.480;6.158;2022-08-14T10:16:21;2.95;;;2.72;;
52868;SDS011;39100;53.480;6.158;2022-08-14T10:19:07;3.10;;;2.80;;
52868;SDS011;39100;53.480;6.158;2022-08-14T10:21:34;3.38;;;2.90;;
52868;SDS011;39100;53.480;6.158;2022-08-14T10:24:01;3.25;;;2.95;;
52868;SDS011;39100;53.480;6.158;2022-08-14T10:26:29;3.45;;;2.55;;
52868;SDS011;39100;53.480;6.158;2022-08-14T10:29:02;3.00;;;2.80;;
52868;SDS011;39100;53.480;6.158;2022-08-14T10:31:34;2.65;;;2.45;;
52868;SDS011;39100;53.480;6.158;2022-08-14T10:34:09;2.50;;;2.30;;
52868;SDS011;39100;53.480;6.158;2022-08-14T10:36:37;2.55;;;2.35;;
52868;SDS011;39100;53.480;6.158;2022-08-14T10:39:05;2.47;;;2.28;;
52868;SDS011;39100;53.480;6.158;2022-08-14T10:41:36;2.78;;;2.50;;
52868;SDS011;39100;53.480;6.158;2022-08-14T10:44:05;3.05;;;2.83;;
52868;SDS011;39100;53.480;6.158;2022-08-14T10:46:43;2.90;;;2.70;;
52868;SDS011;39100;53.480;6.158;2022-08-14T10:49:17;3.17;;;2.85;;
52868;SDS011;39100;53.480;6.158;2022-08-14T10:52:22;4.07;;;2.80;;
52868;SDS011;39100;53.480;6.158;2022-08-14T10:54:47;3.25;;;2.95;;
52868;SDS011;39100;53.480;6.158;2022-08-14T10:59:46;3.28;;;2.97;;
52868;SDS011;39100;53.480;6.158;2022-08-14T11:02:24;2.63;;;2.42;;
52868;SDS011;39100;53.480;6.158;2022-08-14T11:05:03;2.35;;;2.15;;
52868;SDS011;39100;53.480;6.158;2022-08-14T11:10:21;2.95;;;2.65;;
52868;SDS011;39100;53.480;6.158;2022-08-14T11:15:23;2.72;;;2.53;;
52868;SDS011;39100;53.480;6.158;2022-08-14T11:17:52;2.50;;;2.30;;
52868;SDS011;39100;53.480;6.158;2022-08-14T11:20:21;2.45;;;2.25;;
52868;SDS011;39100;53.480;6.158;2022-08-14T11:22:50;2.60;;;2.40;;
52868;SDS011;39100;53.480;6.158;2022-08-14T11:25:19;2.60;;;2.40;;
52868;SDS011;39100;53.480;6.158;2022-08-14T11:27:50;2.95;;;2.75;;
52868;SDS011;39100;53.480;6.158;2022-08-14T11:30:19;3.33;;;3.03;;
52868;SDS011;39100;53.480;6.158;2022-08-14T11:32:46;3.13;;;2.83;;
52868;SDS011;39100;53.480;6.158;2022-08-14T11:35:13;4.47;;;2.53;;
52868;SDS011;39100;53.480;6.158;2022-08-14T11:37:48;2.88;;;2.67;;
52868;SDS011;39100;53.480;6.158;2022-08-14T11:40:14;2.60;;;2.40;;
52868;SDS011;39100;53.480;6.158;2022-08-14T11:42:40;4.97;;;2.53;;
52868;SDS011;39100;53.480;6.158;2022-08-14T11:45:10;3.03;;;2.70;;
52868;SDS011;39100;53.480;6.158;2022-08-14T11:47:36;2.47;;;2.28;;
52868;SDS011;39100;53.480;6.158;2022-08-14T11:50:16;2.92;;;2.55;;
52868;SDS011;39100;53.480;6.158;2022-08-14T11:52:47;2.97;;;2.70;;
52868;SDS011;39100;53.480;6.158;2022-08-14T11:55:15;2.38;;;2.28;;
52868;SDS011;39100;53.480;6.158;2022-08-14T11:57:41;2.53;;;2.38;;
52868;SDS011;39100;53.480;6.158;2022-08-14T12:00:09;4.20;;;2.80;;
52868;SDS011;39100;53.480;6.158;2022-08-14T12:02:48;2.70;;;2.50;;
52868;SDS011;39100;53.480;6.158;2022-08-14T12:05:15;2.53;;;2.33;;
52868;SDS011;39100;53.480;6.158;2022-08-14T12:07:47;2.30;;;2.20;;
52868;SDS011;39100;53.480;6.158;2022-08-14T12:10:15;2.70;;;2.50;;
52868;SDS011;39100;53.480;6.158;2022-08-14T12:12:43;2.75;;;2.55;;
52868;SDS011;39100;53.480;6.158;2022-08-14T12:15:08;2.80;;;2.40;;
52868;SDS011;39100;53.480;6.158;2022-08-14T12:17:46;2.30;;;2.10;;
52868;SDS011;39100;53.480;6.158;2022-08-14T12:20:15;2.63;;;2.42;;
52868;SDS011;39100;53.480;6.158;2022-08-14T12:22:42;2.67;;;2.47;;
52868;SDS011;39100;53.480;6.158;2022-08-14T12:25:14;2.45;;;2.25;;
52868;SDS011;39100;53.480;6.158;2022-08-14T12:27:46;2.53;;;2.33;;
52868;SDS011;39100;53.480;6.158;2022-08-14T12:30:24;2.63;;;2.42;;
52868;SDS011;39100;53.480;6.158;2022-08-14T12:33:05;2.70;;;2.50;;
52868;SDS011;39100;53.480;6.158;2022-08-14T12:35:43;3.42;;;2.58;;
52868;SDS011;39100;53.480;6.158;2022-08-14T12:38:12;2.50;;;2.30;;
52868;SDS011;39100;53.480;6.158;2022-08-14T12:40:50;2.38;;;2.28;;
52868;SDS011;39100;53.480;6.158;2022-08-14T12:43:18;3.40;;;2.53;;
52868;SDS011;39100;53.480;6.158;2022-08-14T12:45:49;3.25;;;2.95;;
52868;SDS011;39100;53.480;6.158;2022-08-14T12:48:19;3.17;;;2.97;;
52868;SDS011;39100;53.480;6.158;2022-08-14T12:50:46;3.25;;;2.55;;
52868;SDS011;39100;53.480;6.158;2022-08-14T12:53:15;3.30;;;2.30;;
52868;SDS011;39100;53.480;6.158;2022-08-14T12:55:42;2.40;;;2.30;;
52868;SDS011;39100;53.480;6.158;2022-08-14T12:58:09;4.53;;;2.13;;
52868;SDS011;39100;53.480;6.158;2022-08-14T13:00:37;2.45;;;2.17;;
52868;SDS011;39100;53.480;6.158;2022-08-14T13:03:22;2.75;;;2.55;;
52868;SDS011;39100;53.480;6.158;2022-08-14T13:05:49;2.75;;;2.60;;
52868;SDS011;39100;53.480;6.158;2022-08-14T13:08:15;3.38;;;3.08;;
52868;SDS011;39100;53.480;6.158;2022-08-14T13:10:41;3.03;;;2.83;;
52868;SDS011;39100;53.480;6.158;2022-08-14T13:13:08;3.90;;;2.58;;
52868;SDS011;39100;53.480;6.158;2022-08-14T13:15:34;2.50;;;2.30;;
52868;SDS011;39100;53.480;6.158;2022-08-14T13:18:00;2.42;;;2.22;;
52868;SDS011;39100;53.480;6.158;2022-08-14T13:20:28;2.78;;;2.58;;
52868;SDS011;39100;53.480;6.158;2022-08-14T13:22:55;2.72;;;2.53;;
52868;SDS011;39100;53.480;6.158;2022-08-14T13:25:22;2.85;;;2.65;;
52868;SDS011;39100;53.480;6.158;2022-08-14T13:27:50;3.10;;;2.78;;
52868;SDS011;39100;53.480;6.158;2022-08-14T13:30:22;3.47;;;2.60;;
52868;SDS011;39100;53.480;6.158;2022-08-14T13:32:49;2.85;;;2.65;;
52868;SDS011;39100;53.480;6.158;2022-08-14T13:35:15;2.40;;;2.20;;
52868;SDS011;39100;53.480;6.158;2022-08-14T13:37:42;3.10;;;2.67;;
52868;SDS011;39100;53.480;6.158;2022-08-14T13:40:09;2.97;;;2.78;;
52868;SDS011;39100;53.480;6.158;2022-08-14T13:42:38;2.55;;;2.45;;
52868;SDS011;39100;53.480;6.158;2022-08-14T13:45:09;4.07;;;2.55;;
52868;SDS011;39100;53.480;6.158;2022-08-14T13:47:36;3.63;;;2.47;;
52868;SDS011;39100;53.480;6.158;2022-08-14T13:50:06;2.92;;;2.70;;
52868;SDS011;39100;53.480;6.158;2022-08-14T13:52:44;3.95;;;2.83;;
52868;SDS011;39100;53.480;6.158;2022-08-14T13:55:15;3.30;;;2.83;;
52868;SDS011;39100;53.480;6.158;2022-08-14T13:57:43;4.70;;;2.78;;
52868;SDS011;39100;53.480;6.158;2022-08-14T14:00:10;6.78;;;3.22;;
52868;SDS011;39100;53.480;6.158;2022-08-14T14:02:41;3.20;;;2.90;;
52868;SDS011;39100;53.480;6.158;2022-08-14T14:07:36;4.82;;;3.90;;
52868;SDS011;39100;53.480;6.158;2022-08-14T14:10:04;3.58;;;3.00;;
52868;SDS011;39100;53.480;6.158;2022-08-14T14:12:33;4.00;;;3.17;;
52868;SDS011;39100;53.480;6.158;2022-08-14T14:15:01;3.00;;;2.70;;
52868;SDS011;39100;53.480;6.158;2022-08-14T14:17:29;2.60;;;2.40;;
52868;SDS011;39100;53.480;6.158;2022-08-14T14:19:55;3.67;;;2.70;;
52868;SDS011;39100;53.480;6.158;2022-08-14T14:22:22;2.60;;;2.40;;
52868;SDS011;39100;53.480;6.158;2022-08-14T14:24:51;3.25;;;2.33;;
52868;SDS011;39100;53.480;6.158;2022-08-14T14:27:17;3.05;;;2.85;;
52868;SDS011;39100;53.480;6.158;2022-08-14T14:29:44;3.95;;;2.33;;
52868;SDS011;39100;53.480;6.158;2022-08-14T14:32:12;2.25;;;2.05;;
52868;SDS011;39100;53.480;6.158;2022-08-14T14:34:41;2.92;;;2.53;;
52868;SDS011;39100;53.480;6.158;2022-08-14T14:37:07;3.75;;;2.67;;
52868;SDS011;39100;53.480;6.158;2022-08-14T14:39:37;2.87;;;2.40;;
52868;SDS011;39100;53.480;6.158;2022-08-14T14:42:04;3.35;;;2.40;;
52868;SDS011;39100;53.480;6.158;2022-08-14T14:44:36;2.45;;;2.25;;
52868;SDS011;39100;53.480;6.158;2022-08-14T14:47:11;3.20;;;2.15;;
52868;SDS011;39100;53.480;6.158;2022-08-14T14:49:40;4.03;;;2.65;;
52868;SDS011;39100;53.480;6.158;2022-08-14T14:52:07;4.75;;;2.72;;
52868;SDS011;39100;53.480;6.158;2022-08-14T14:54:34;5.15;;;2.97;;
52868;SDS011;39100;53.480;6.158;2022-08-14T14:57:00;4.85;;;3.63;;
52868;SDS011;39100;53.480;6.158;2022-08-14T14:59:27;2.95;;;2.75;;
52868;SDS011;39100;53.480;6.158;2022-08-14T15:01:58;4.65;;;3.33;;
52868;SDS011;39100;53.480;6.158;2022-08-14T15:04:30;4.90;;;3.42;;
52868;SDS011;39100;53.480;6.158;2022-08-14T15:06:56;4.18;;;2.70;;
52868;SDS011;39100;53.480;6.158;2022-08-14T15:09:22;3.28;;;2.67;;
52868;SDS011;39100;53.480;6.158;2022-08-14T15:11:47;3.30;;;3.00;;
52868;SDS011;39100;53.480;6.158;2022-08-14T15:14:13;5.93;;;2.78;;
52868;SDS011;39100;53.480;6.158;2022-08-14T15:16:39;3.13;;;2.60;;
52868;SDS011;39100;53.480;6.158;2022-08-14T15:19:05;3.53;;;2.65;;
52868;SDS011;39100;53.480;6.158;2022-08-14T15:21:31;3.38;;;2.55;;